createdAt,value
2022-11-23T00:01:17.780Z,17.70
2022-11-23T00:03:19.580Z,17.70
2022-11-23T00:05:21.526Z,17.70
2022-11-23T00:07:23.368Z,17.70
2022-11-23T00:09:25.134Z,17.70
2022-11-23T00:11:27.748Z,17.70
2022-11-23T00:13:29.541Z,17.70
2022-11-23T00:15:31.344Z,17.70
2022-11-23T00:17:33.198Z,17.70
2022-11-23T00:19:34.968Z,17.70
2022-11-23T00:21:36.675Z,17.70
2022-11-23T00:23:38.724Z,17.70
2022-11-23T00:25:40.435Z,17.70
2022-11-23T00:27:42.208Z,17.70
2022-11-23T00:29:44.575Z,17.70
2022-11-23T00:31:46.370Z,17.70
2022-11-23T00:33:49.264Z,17.70
2022-11-23T00:36:05.235Z,17.70
2022-11-23T00:38:06.934Z,17.70
2022-11-23T00:40:09.715Z,17.70
2022-11-23T00:42:11.463Z,17.70
2022-11-23T00:44:13.246Z,17.80
2022-11-23T00:46:14.946Z,17.70
2022-11-23T00:48:16.790Z,17.70
2022-11-23T00:50:18.531Z,17.70
2022-11-23T00:52:20.279Z,17.70
2022-11-23T00:54:22.230Z,17.70
2022-11-23T00:56:24.073Z,17.70
2022-11-23T00:58:26.398Z,17.70
2022-11-23T01:00:28.188Z,17.70
2022-11-23T01:02:34.154Z,17.70
2022-11-23T01:04:35.922Z,17.70
2022-11-23T01:06:38.875Z,17.70
2022-11-23T01:08:40.811Z,17.70
2022-11-23T01:10:42.559Z,17.70
2022-11-23T01:12:44.351Z,17.70
2022-11-23T01:14:49.170Z,17.70
2022-11-23T01:16:51.028Z,17.70
2022-11-23T01:18:53.635Z,17.70
2022-11-23T01:20:57.327Z,17.70
2022-11-23T01:22:59.024Z,17.70
2022-11-23T01:25:01.194Z,17.70
2022-11-23T01:27:04.540Z,17.70
2022-11-23T01:29:06.776Z,17.70
2022-11-23T01:31:09.902Z,17.70
2022-11-23T01:33:11.647Z,17.70
2022-11-23T01:35:13.363Z,17.70
2022-11-23T01:37:15.218Z,17.70
2022-11-23T01:39:16.918Z,17.70
2022-11-23T01:41:22.936Z,17.70
2022-11-23T01:43:24.698Z,17.70
2022-11-23T01:45:29.500Z,17.70
2022-11-23T01:47:31.266Z,17.70
2022-11-23T01:49:38.934Z,17.70
2022-11-23T01:51:41.648Z,17.70
2022-11-23T01:53:45.726Z,17.70
2022-11-23T01:55:48.573Z,17.70
2022-11-23T01:57:50.336Z,17.70
2022-11-23T01:59:53.086Z,17.70
2022-11-23T02:01:54.906Z,17.70
2022-11-23T02:03:58.538Z,17.70
2022-11-23T02:06:03.040Z,17.70
2022-11-23T02:08:05.499Z,17.70
2022-11-23T02:10:07.639Z,17.70
2022-11-23T02:12:13.532Z,17.70
2022-11-23T02:14:19.125Z,17.70
2022-11-23T02:16:25.050Z,17.70
2022-11-23T02:18:29.227Z,17.70
2022-11-23T02:20:31.100Z,17.70
2022-11-23T02:22:51.730Z,17.70
2022-11-23T02:24:54.918Z,17.70
2022-11-23T02:26:59.395Z,17.70
2022-11-23T02:29:01.875Z,17.70
2022-11-23T02:31:05.696Z,17.70
2022-11-23T02:33:07.423Z,17.70
2022-11-23T02:35:10.809Z,17.70
2022-11-23T02:37:12.816Z,17.70
2022-11-23T02:39:43.803Z,17.70
2022-11-23T02:41:46.936Z,17.70
2022-11-23T02:43:53.158Z,17.70
2022-11-23T02:45:56.479Z,17.70
2022-11-23T02:48:00.732Z,17.70
2022-11-23T02:50:02.606Z,17.70
2022-11-23T02:52:04.763Z,17.70
2022-11-23T02:54:06.677Z,17.70
2022-11-23T02:56:10.974Z,17.70
2022-11-23T02:58:12.790Z,17.70
2022-11-23T03:00:15.141Z,17.70
2022-11-23T03:02:18.093Z,17.70
2022-11-23T03:04:27.142Z,17.70
2022-11-23T03:06:30.123Z,17.70
2022-11-23T03:08:32.004Z,17.70
2022-11-23T03:10:35.018Z,17.70
2022-11-23T03:12:36.920Z,17.70
2022-11-23T03:14:39.650Z,17.70
2022-11-23T03:16:41.445Z,17.70
2022-11-23T03:18:43.348Z,17.70
2022-11-23T03:20:45.121Z,17.70
2022-11-23T03:22:47.067Z,17.70
2022-11-23T03:24:50.881Z,17.70
2022-11-23T03:26:52.727Z,17.70
2022-11-23T03:28:55.393Z,17.70
2022-11-23T03:31:01.207Z,17.70
2022-11-23T03:33:03.669Z,17.70
2022-11-23T03:35:06.282Z,17.70
2022-11-23T03:37:20.486Z,17.70
2022-11-23T03:39:23.423Z,17.60
2022-11-23T03:41:43.625Z,17.60
2022-11-23T03:43:45.683Z,17.60
2022-11-23T03:45:47.488Z,17.60
2022-11-23T03:47:49.589Z,17.60
2022-11-23T03:49:51.407Z,17.60
2022-11-23T03:51:53.186Z,17.60
2022-11-23T03:53:55.003Z,17.60
2022-11-23T03:55:57.000Z,17.60
2022-11-23T03:58:03.000Z,17.60
2022-11-23T04:00:08.896Z,17.60
2022-11-23T04:02:15.121Z,17.60
2022-11-23T04:04:25.315Z,17.60
2022-11-23T04:06:37.482Z,17.60
2022-11-23T04:08:45.798Z,17.60
2022-11-23T04:10:58.058Z,17.60
2022-11-23T04:13:10.738Z,17.60
2022-11-23T04:15:12.489Z,17.60
2022-11-23T04:17:14.270Z,17.70
2022-11-23T04:19:16.038Z,17.70
2022-11-23T04:21:17.931Z,17.60
2022-11-23T04:23:19.698Z,17.60
2022-11-23T04:25:23.732Z,17.70
2022-11-23T04:27:27.000Z,17.60
2022-11-23T04:29:29.175Z,17.60
2022-11-23T04:31:31.335Z,17.60
2022-11-23T04:33:43.840Z,17.60
2022-11-23T04:35:45.611Z,17.60
2022-11-23T04:37:47.808Z,17.60
2022-11-23T04:39:50.157Z,17.60
2022-11-23T04:41:54.984Z,17.60
2022-11-23T04:43:57.625Z,17.60
2022-11-23T04:45:59.913Z,17.60
2022-11-23T04:48:05.254Z,17.60
2022-11-23T04:50:08.684Z,17.60
2022-11-23T04:52:10.621Z,17.60
2022-11-23T04:54:18.690Z,17.60
2022-11-23T04:56:25.543Z,17.60
2022-11-23T04:58:31.563Z,17.60
2022-11-23T05:00:36.367Z,17.60
2022-11-23T05:02:40.159Z,17.60
2022-11-23T05:04:55.707Z,17.60
2022-11-23T05:07:02.236Z,17.60
2022-11-23T05:09:05.477Z,17.60
2022-11-23T05:11:27.546Z,17.60
2022-11-23T05:13:32.473Z,17.60
2022-11-23T05:15:34.383Z,17.60
2022-11-23T05:17:36.213Z,17.60
2022-11-23T05:19:43.378Z,17.60
2022-11-23T05:21:45.136Z,17.60
2022-11-23T05:23:47.928Z,17.60
2022-11-23T05:25:49.945Z,17.60
2022-11-23T05:27:53.105Z,17.60
2022-11-23T05:29:54.843Z,17.60
2022-11-23T05:31:56.875Z,17.60
2022-11-23T05:33:58.710Z,17.60
2022-11-23T05:36:11.343Z,17.60
2022-11-23T05:38:15.540Z,17.50
2022-11-23T05:40:18.219Z,17.60
2022-11-23T05:42:21.679Z,17.50
2022-11-23T05:44:29.777Z,17.50
2022-11-23T05:46:31.585Z,17.50
2022-11-23T05:48:33.439Z,17.50
2022-11-23T05:50:41.626Z,17.50
2022-11-23T05:53:02.193Z,17.50
2022-11-23T05:55:04.316Z,17.50
2022-11-23T05:57:06.343Z,17.50
2022-11-23T05:59:13.309Z,17.50
2022-11-23T06:01:17.903Z,17.50
2022-11-23T06:03:20.042Z,17.50
2022-11-23T06:05:21.966Z,17.50
2022-11-23T06:07:24.828Z,17.50
2022-11-23T06:09:37.096Z,17.50
2022-11-23T06:11:43.079Z,17.50
2022-11-23T06:13:48.909Z,17.50
2022-11-23T06:15:52.048Z,17.50
2022-11-23T06:17:59.653Z,17.50
2022-11-23T06:20:07.144Z,17.50
2022-11-23T06:22:11.551Z,17.50
2022-11-23T06:24:19.992Z,17.50
2022-11-23T06:26:30.684Z,17.50
2022-11-23T06:28:32.692Z,17.50
2022-11-23T06:30:34.630Z,17.50
2022-11-23T06:32:41.184Z,17.50
2022-11-23T06:34:43.914Z,17.50
2022-11-23T06:36:45.768Z,17.50
2022-11-23T06:38:47.629Z,17.50
2022-11-23T06:40:53.324Z,17.50
2022-11-23T06:42:59.008Z,17.50
2022-11-23T06:45:09.065Z,17.50
2022-11-23T06:47:16.648Z,17.50
2022-11-23T06:49:19.608Z,17.40
2022-11-23T06:51:30.344Z,17.50
2022-11-23T06:53:32.880Z,17.50
2022-11-23T06:55:38.919Z,17.50
2022-11-23T06:57:41.903Z,17.50
2022-11-23T06:59:45.158Z,17.50
2022-11-23T07:01:48.949Z,17.50
2022-11-23T07:03:50.989Z,17.50
2022-11-23T07:06:09.419Z,17.50
2022-11-23T07:08:11.600Z,17.50
2022-11-23T07:10:14.597Z,17.50
2022-11-23T07:12:27.451Z,17.50
2022-11-23T07:14:29.234Z,17.50
2022-11-23T07:16:31.792Z,17.50
2022-11-23T07:18:33.631Z,17.50
2022-11-23T07:20:37.049Z,17.50
2022-11-23T07:22:40.099Z,17.50
2022-11-23T07:24:46.538Z,17.40
2022-11-23T07:26:48.685Z,17.50
2022-11-23T07:28:50.608Z,17.50
2022-11-23T07:30:52.614Z,17.50
2022-11-23T07:33:06.701Z,17.50
2022-11-23T07:35:12.773Z,17.50
2022-11-23T07:37:17.849Z,17.50
2022-11-23T07:39:28.534Z,17.40
2022-11-23T07:41:42.112Z,17.40
2022-11-23T07:43:49.447Z,17.40
2022-11-23T07:45:55.399Z,17.40
2022-11-23T07:47:57.849Z,17.40
2022-11-23T07:49:59.699Z,17.40
2022-11-23T07:52:01.466Z,17.40
2022-11-23T07:54:03.513Z,17.40
2022-11-23T07:56:05.500Z,17.40
2022-11-23T07:58:07.275Z,17.50
2022-11-23T08:00:09.379Z,17.40
2022-11-23T08:02:14.787Z,17.40
2022-11-23T08:04:16.584Z,17.40
2022-11-23T08:06:18.415Z,17.40
2022-11-23T08:08:20.167Z,17.50
2022-11-23T08:10:21.984Z,17.50
2022-11-23T08:12:23.785Z,17.50
2022-11-23T08:14:25.672Z,17.50
2022-11-23T08:16:27.429Z,17.50
2022-11-23T08:18:29.672Z,17.50
2022-11-23T08:20:31.843Z,17.50
2022-11-23T08:22:33.739Z,17.50
2022-11-23T08:24:35.691Z,17.50
2022-11-23T08:26:37.876Z,17.40
2022-11-23T08:28:39.585Z,17.40
2022-11-23T08:30:41.446Z,17.40
2022-11-23T08:32:43.176Z,17.40
2022-11-23T08:34:45.008Z,17.40
2022-11-23T08:36:46.752Z,17.40
2022-11-23T08:38:48.758Z,17.40
2022-11-23T08:40:50.766Z,17.40
2022-11-23T08:42:54.492Z,17.40
2022-11-23T08:44:56.397Z,17.40
2022-11-23T08:46:58.172Z,17.40
2022-11-23T08:48:59.927Z,17.40
2022-11-23T08:51:02.039Z,17.40
2022-11-23T08:53:03.944Z,17.40
2022-11-23T08:55:06.107Z,17.40
2022-11-23T08:57:07.864Z,17.50
2022-11-23T08:59:09.695Z,17.50
2022-11-23T09:01:12.618Z,17.40
2022-11-23T09:03:14.623Z,17.50
2022-11-23T09:05:16.419Z,17.50
2022-11-23T09:07:18.333Z,17.50
2022-11-23T09:09:20.153Z,17.50
2022-11-23T09:11:21.996Z,17.50
2022-11-23T09:13:23.735Z,17.50
2022-11-23T09:15:25.968Z,17.50
2022-11-23T09:17:27.702Z,17.50
2022-11-23T09:19:29.559Z,17.50
2022-11-23T09:21:31.363Z,17.50
2022-11-23T09:23:33.360Z,17.50
2022-11-23T09:25:35.052Z,17.50
2022-11-23T09:27:36.868Z,17.50
2022-11-23T09:29:38.593Z,17.50
2022-11-23T09:31:40.368Z,17.50
2022-11-23T09:33:43.068Z,17.50
2022-11-23T09:35:44.938Z,17.50
2022-11-23T09:37:46.634Z,17.50
2022-11-23T09:39:48.415Z,17.50
2022-11-23T09:41:55.445Z,17.50
2022-11-23T09:44:02.256Z,17.40
2022-11-23T09:46:10.749Z,17.50
2022-11-23T09:48:21.464Z,17.50
2022-11-23T09:50:26.027Z,17.50
2022-11-23T09:52:29.409Z,17.50
2022-11-23T09:54:33.649Z,17.50
2022-11-23T09:56:37.125Z,17.50
2022-11-23T09:58:39.807Z,17.50
2022-11-23T10:00:47.488Z,17.50
2022-11-23T10:02:49.333Z,17.50
2022-11-23T10:04:54.952Z,17.50
2022-11-23T10:06:58.956Z,17.50
2022-11-23T10:09:19.339Z,17.60
2022-11-23T10:11:31.403Z,17.60
2022-11-23T10:13:52.846Z,17.60
2022-11-23T10:15:57.315Z,17.60
2022-11-23T10:18:08.087Z,17.60
2022-11-23T10:20:18.708Z,17.60
2022-11-23T10:22:34.018Z,17.60
2022-11-23T10:24:40.519Z,17.60
2022-11-23T10:26:44.054Z,17.60
2022-11-23T10:28:46.558Z,17.60
2022-11-23T10:30:55.291Z,17.70
2022-11-23T10:33:01.972Z,17.70
2022-11-23T10:35:06.469Z,17.70
2022-11-23T10:37:12.151Z,17.70
2022-11-23T10:39:21.184Z,17.70
2022-11-23T10:41:22.924Z,17.70
2022-11-23T10:43:26.815Z,17.70
2022-11-23T10:45:28.919Z,17.70
2022-11-23T10:47:49.511Z,17.80
2022-11-23T10:49:57.271Z,17.80
2022-11-23T10:52:01.073Z,17.80
2022-11-23T10:54:05.629Z,17.80
2022-11-23T10:56:11.778Z,17.80
2022-11-23T10:58:33.759Z,17.90
2022-11-23T11:00:35.559Z,17.90
2022-11-23T11:02:41.102Z,17.90
2022-11-23T11:04:43.318Z,18.00
2022-11-23T11:06:45.064Z,18.00
2022-11-23T11:09:03.434Z,18.00
2022-11-23T11:11:11.319Z,18.00
2022-11-23T11:13:26.681Z,18.00
2022-11-23T11:15:28.470Z,18.00
2022-11-23T11:17:34.287Z,18.10
2022-11-23T11:19:36.390Z,18.10
2022-11-23T11:21:41.390Z,18.10
2022-11-23T11:23:46.722Z,18.20
2022-11-23T11:25:49.035Z,18.20
2022-11-23T11:27:51.538Z,18.30
2022-11-23T11:29:55.212Z,18.30
2022-11-23T11:32:01.424Z,18.30
2022-11-23T11:34:14.006Z,18.30
2022-11-23T11:36:16.361Z,18.40
2022-11-23T11:38:18.112Z,18.40
2022-11-23T11:40:23.365Z,18.40
2022-11-23T11:42:36.515Z,18.40
2022-11-23T11:44:40.191Z,18.50
2022-11-23T11:46:45.812Z,18.50
2022-11-23T11:49:07.621Z,18.60
2022-11-23T11:51:27.941Z,18.60
2022-11-23T11:53:33.044Z,18.60
2022-11-23T11:55:44.226Z,18.70
2022-11-23T11:57:48.797Z,18.70
2022-11-23T11:59:53.356Z,18.60
2022-11-23T12:02:21.402Z,18.60
2022-11-23T12:04:59.664Z,18.60
2022-11-23T12:07:03.967Z,18.70
2022-11-23T12:09:26.399Z,18.70
2022-11-23T12:11:28.211Z,18.70
2022-11-23T12:13:37.039Z,18.70
2022-11-23T12:15:50.555Z,18.70
2022-11-23T12:18:11.566Z,18.70
2022-11-23T12:20:26.266Z,18.70
2022-11-23T12:22:34.007Z,18.70
2022-11-23T12:24:41.691Z,18.80
2022-11-23T12:26:52.413Z,18.80
2022-11-23T12:28:54.177Z,18.80
2022-11-23T12:31:04.630Z,18.80
2022-11-23T12:33:24.955Z,18.80
2022-11-23T12:35:41.304Z,18.80
2022-11-23T12:37:48.625Z,18.80
2022-11-23T12:39:53.079Z,18.70
2022-11-23T12:42:10.036Z,18.70
2022-11-23T12:44:14.452Z,18.70
2022-11-23T12:46:42.266Z,18.80
2022-11-23T12:48:50.386Z,18.80
2022-11-23T12:51:18.445Z,18.80
2022-11-23T12:53:36.888Z,18.80
2022-11-23T12:55:56.639Z,18.80
2022-11-23T12:58:10.191Z,18.80
2022-11-23T13:00:17.608Z,18.80
2022-11-23T13:02:35.711Z,18.80
2022-11-23T13:04:49.792Z,18.80
2022-11-23T13:07:28.038Z,18.90
2022-11-23T13:09:34.043Z,18.90
2022-11-23T13:11:44.654Z,18.80
2022-11-23T13:13:58.148Z,18.80
2022-11-23T13:16:05.958Z,18.80
2022-11-23T13:18:23.918Z,18.80
2022-11-23T13:20:32.533Z,18.80
2022-11-23T13:22:35.347Z,18.80
2022-11-23T13:24:39.111Z,18.20
2022-11-23T13:26:40.949Z,17.60
2022-11-23T13:28:43.205Z,17.00
2022-11-23T13:31:13.462Z,17.20
2022-11-23T13:33:09.453Z,17.10
2022-11-23T13:35:14.076Z,16.80
2022-11-23T13:37:15.823Z,16.80
2022-11-23T13:39:40.823Z,16.60
2022-11-23T13:41:42.495Z,16.80
2022-11-23T13:43:44.366Z,17.20
2022-11-23T13:46:06.122Z,17.50
2022-11-23T13:48:19.407Z,17.60
2022-11-23T13:50:25.963Z,17.80
2022-11-23T13:52:28.836Z,17.90
2022-11-23T13:54:30.943Z,17.90
2022-11-23T13:56:40.313Z,18.00
2022-11-23T13:58:49.997Z,18.00
2022-11-23T14:00:55.794Z,18.00
2022-11-23T14:03:16.078Z,18.00
2022-11-23T14:05:31.724Z,18.10
2022-11-23T14:07:40.762Z,18.10
2022-11-23T14:09:42.745Z,18.10
2022-11-23T14:11:54.248Z,18.20
2022-11-23T14:14:01.255Z,18.20
2022-11-23T14:16:03.995Z,18.20
2022-11-23T14:18:24.488Z,18.20
2022-11-23T14:20:32.471Z,18.20
2022-11-23T14:22:53.089Z,18.20
2022-11-23T14:25:01.623Z,18.30
2022-11-23T14:27:39.138Z,18.30
2022-11-23T14:29:27.932Z,18.30
2022-11-23T14:31:43.585Z,18.30
2022-11-23T14:33:53.056Z,18.30
2022-11-23T14:36:12.886Z,18.30
2022-11-23T14:38:20.385Z,18.30
2022-11-23T14:40:25.472Z,18.20
2022-11-23T14:42:28.457Z,18.20
2022-11-23T14:44:35.592Z,18.30
2022-11-23T14:46:59.179Z,18.30
2022-11-23T14:49:12.169Z,18.30
2022-11-23T14:51:18.532Z,18.30
2022-11-23T14:53:20.559Z,18.30
2022-11-23T14:55:23.885Z,18.30
2022-11-23T14:57:28.612Z,18.30
2022-11-23T14:59:36.093Z,18.40
2022-11-23T15:01:38.071Z,18.30
2022-11-23T15:03:50.512Z,18.20
2022-11-23T15:05:54.313Z,18.20
2022-11-23T15:08:01.480Z,18.10
2022-11-23T15:10:22.072Z,18.10
2022-11-23T15:12:23.777Z,18.10
2022-11-23T15:14:26.640Z,18.10
2022-11-23T15:16:28.663Z,18.20
2022-11-23T15:18:42.634Z,18.20
2022-11-23T15:20:45.091Z,18.20
2022-11-23T15:22:46.922Z,18.20
2022-11-23T15:24:48.787Z,18.20
2022-11-23T15:26:50.968Z,18.20
2022-11-23T15:28:52.786Z,18.20
2022-11-23T15:30:58.270Z,18.20
2022-11-23T15:33:02.065Z,18.20
2022-11-23T15:35:07.912Z,18.20
2022-11-23T15:37:12.408Z,18.30
2022-11-23T15:39:18.258Z,18.30
2022-11-23T15:41:20.493Z,18.30
2022-11-23T15:43:22.570Z,18.20
2022-11-23T15:45:38.040Z,18.20
2022-11-23T15:47:39.989Z,18.20
2022-11-23T15:49:41.903Z,18.20
2022-11-23T15:51:44.337Z,18.20
2022-11-23T15:53:55.653Z,18.20
2022-11-23T15:56:01.920Z,18.20
2022-11-23T15:58:04.516Z,18.20
2022-11-23T16:00:07.231Z,18.20
2022-11-23T16:02:28.185Z,18.20
2022-11-23T16:04:38.213Z,18.20
2022-11-23T16:06:47.235Z,18.20
2022-11-23T16:08:49.153Z,18.20
2022-11-23T16:10:54.590Z,18.20
2022-11-23T16:13:00.483Z,18.20
2022-11-23T16:15:22.688Z,18.20
2022-11-23T16:17:32.036Z,18.20
2022-11-23T16:19:34.046Z,18.20
2022-11-23T16:21:36.205Z,18.20
2022-11-23T16:23:47.704Z,18.20
2022-11-23T16:25:59.024Z,18.20
2022-11-23T16:28:02.572Z,18.20
2022-11-23T16:30:04.911Z,18.20
2022-11-23T16:32:20.605Z,18.20
2022-11-23T16:34:23.054Z,18.30
2022-11-23T16:36:34.617Z,18.30
2022-11-23T16:38:36.560Z,18.30
2022-11-23T16:40:38.865Z,18.30
2022-11-23T16:42:40.664Z,18.30
2022-11-23T16:44:43.160Z,18.30
2022-11-23T16:46:46.411Z,18.30
2022-11-23T16:48:51.465Z,18.30
2022-11-23T16:50:54.749Z,18.30
2022-11-23T16:52:57.046Z,18.30
2022-11-23T16:54:58.844Z,18.30
2022-11-23T16:57:00.819Z,17.70
2022-11-23T16:59:03.146Z,16.80
2022-11-23T17:01:04.971Z,16.60
2022-11-23T17:03:07.329Z,16.50
2022-11-23T17:05:23.609Z,16.40
2022-11-23T17:07:28.188Z,16.10
2022-11-23T17:09:30.195Z,16.20
2022-11-23T17:11:32.028Z,16.50
2022-11-23T17:13:33.949Z,17.00
2022-11-23T17:15:35.992Z,17.50
2022-11-23T17:17:38.298Z,17.80
2022-11-23T17:19:46.315Z,17.90
2022-11-23T17:21:50.984Z,17.80
2022-11-23T17:23:55.169Z,17.70
2022-11-23T17:25:57.593Z,17.50
2022-11-23T17:28:03.400Z,17.50
2022-11-23T17:30:10.811Z,17.40
2022-11-23T17:32:13.762Z,17.50
2022-11-23T17:34:15.974Z,17.50
2022-11-23T17:36:18.222Z,17.50
2022-11-23T17:38:22.285Z,17.60
2022-11-23T17:40:24.676Z,17.60
2022-11-23T17:42:29.666Z,17.60
2022-11-23T17:44:31.558Z,17.60
2022-11-23T17:46:33.511Z,17.60
2022-11-23T17:48:35.669Z,17.60
2022-11-23T17:50:37.971Z,17.70
2022-11-23T17:52:40.038Z,17.70
2022-11-23T17:54:44.249Z,17.80
2022-11-23T17:56:47.233Z,17.70
2022-11-23T17:58:49.840Z,17.70
2022-11-23T18:00:55.612Z,17.70
2022-11-23T18:02:57.663Z,17.70
2022-11-23T18:05:02.431Z,17.70
2022-11-23T18:07:10.183Z,17.80
2022-11-23T18:09:12.074Z,17.80
2022-11-23T18:11:16.697Z,17.80
2022-11-23T18:13:18.661Z,17.80
2022-11-23T18:15:20.492Z,17.80
2022-11-23T18:17:22.709Z,17.80
2022-11-23T18:19:32.365Z,17.80
2022-11-23T18:21:34.862Z,17.80
2022-11-23T18:23:36.915Z,17.80
2022-11-23T18:25:41.758Z,17.80
2022-11-23T18:27:43.676Z,17.80
2022-11-23T18:29:45.621Z,17.80
2022-11-23T18:31:47.534Z,17.80
2022-11-23T18:33:49.961Z,17.80
2022-11-23T18:35:54.833Z,17.80
2022-11-23T18:37:56.895Z,17.80
2022-11-23T18:40:08.158Z,17.80
2022-11-23T18:42:13.510Z,17.80
2022-11-23T18:44:17.536Z,17.80
2022-11-23T18:46:19.888Z,17.80
2022-11-23T18:48:22.030Z,17.80
2022-11-23T18:50:27.293Z,17.90
2022-11-23T18:52:29.279Z,17.90
2022-11-23T18:54:31.386Z,17.90
2022-11-23T18:56:33.202Z,17.90
2022-11-23T18:58:42.408Z,17.90
2022-11-23T19:00:46.935Z,17.90
2022-11-23T19:02:57.537Z,17.90
2022-11-23T19:05:01.955Z,17.90
2022-11-23T19:07:03.852Z,17.90
2022-11-23T19:09:05.746Z,17.90
2022-11-23T19:11:15.220Z,17.90
2022-11-23T19:13:17.102Z,17.90
2022-11-23T19:15:19.025Z,17.90
2022-11-23T19:17:20.833Z,17.90
2022-11-23T19:19:22.868Z,17.90
2022-11-23T19:21:25.428Z,17.90
2022-11-23T19:23:29.749Z,17.90
2022-11-23T19:25:37.295Z,17.90
2022-11-23T19:27:39.334Z,17.90
2022-11-23T19:29:41.280Z,17.90
2022-11-23T19:31:43.251Z,17.90
2022-11-23T19:33:53.496Z,17.90
2022-11-23T19:36:03.912Z,17.90
2022-11-23T19:38:09.108Z,17.90
2022-11-23T19:40:11.278Z,17.90
2022-11-23T19:42:16.212Z,17.90
2022-11-23T19:44:18.190Z,17.90
2022-11-23T19:46:22.980Z,17.90
2022-11-23T19:48:30.017Z,17.90
2022-11-23T19:50:32.066Z,17.90
2022-11-23T19:52:55.897Z,17.90
2022-11-23T19:54:56.044Z,17.90
2022-11-23T19:56:58.090Z,17.90
2022-11-23T19:59:00.907Z,17.90
2022-11-23T20:01:04.617Z,17.90
2022-11-23T20:03:06.461Z,17.90
2022-11-23T20:05:08.582Z,17.90
2022-11-23T20:07:13.343Z,17.90
2022-11-23T20:09:16.474Z,17.90
2022-11-23T20:11:18.363Z,17.90
2022-11-23T20:13:20.457Z,17.90
2022-11-23T20:15:22.267Z,17.90
2022-11-23T20:17:24.085Z,17.90
2022-11-23T20:19:26.264Z,17.90
2022-11-23T20:21:38.561Z,17.90
2022-11-23T20:23:43.637Z,17.90
2022-11-23T20:25:51.510Z,17.90
2022-11-23T20:27:53.326Z,17.90
2022-11-23T20:29:55.197Z,17.90
2022-11-23T20:31:57.106Z,17.90
2022-11-23T20:33:59.557Z,17.90
2022-11-23T20:36:11.332Z,17.90
2022-11-23T20:38:13.668Z,17.90
2022-11-23T20:40:15.726Z,17.90
2022-11-23T20:42:17.657Z,17.90
2022-11-23T20:44:19.522Z,17.90
2022-11-23T20:46:45.519Z,17.90
2022-11-23T20:48:44.924Z,17.90
2022-11-23T20:50:47.295Z,17.90
2022-11-23T20:52:50.344Z,17.90
2022-11-23T20:54:52.209Z,17.90
2022-11-23T20:59:12.618Z,17.90
2022-11-23T21:01:20.607Z,17.90
2022-11-23T21:03:22.813Z,17.90
2022-11-23T21:05:25.063Z,17.90
2022-11-23T21:07:30.047Z,17.90
2022-11-23T21:09:40.383Z,17.90
2022-11-23T21:11:45.297Z,17.90
2022-11-23T21:13:49.849Z,17.90
2022-11-23T21:15:57.030Z,17.90
2022-11-23T21:17:58.897Z,17.90
2022-11-23T21:20:00.743Z,17.90
2022-11-23T21:22:04.424Z,17.90
2022-11-23T21:24:06.753Z,17.90
2022-11-23T21:26:08.472Z,17.90
2022-11-23T21:28:10.299Z,17.90
2022-11-23T21:30:12.263Z,17.90
2022-11-23T21:32:14.012Z,17.90
2022-11-23T21:34:17.931Z,17.90
2022-11-23T21:36:19.758Z,17.90
2022-11-23T21:38:25.557Z,17.90
2022-11-23T21:40:27.386Z,17.90
2022-11-23T21:42:29.116Z,17.90
2022-11-23T21:44:31.116Z,17.90
2022-11-23T21:46:33.135Z,17.90
2022-11-23T21:48:35.419Z,17.90
2022-11-23T21:50:37.158Z,17.90
2022-11-23T21:52:38.925Z,17.90
2022-11-23T21:54:44.410Z,17.90
2022-11-23T21:56:49.202Z,17.90
2022-11-23T21:58:50.923Z,17.90
2022-11-23T22:00:52.770Z,17.90
2022-11-23T22:02:54.533Z,17.90
2022-11-23T22:04:57.253Z,17.90
2022-11-23T22:06:58.940Z,17.90
2022-11-23T22:09:00.759Z,17.90
2022-11-23T22:11:08.856Z,17.90
2022-11-23T22:13:10.590Z,17.90
2022-11-23T22:15:12.376Z,17.90
2022-11-23T22:17:14.196Z,17.90
2022-11-23T22:19:16.668Z,17.90
2022-11-23T22:21:19.443Z,17.90
2022-11-23T22:23:21.157Z,17.90
2022-11-23T22:25:23.030Z,17.90
2022-11-23T22:27:24.756Z,17.90
2022-11-23T22:29:26.475Z,17.90
2022-11-23T22:31:28.660Z,17.90
2022-11-23T22:33:30.717Z,17.90
2022-11-23T22:35:32.645Z,17.90
2022-11-23T22:37:34.410Z,17.90
2022-11-23T22:39:36.098Z,17.90
2022-11-23T22:41:38.427Z,17.90
2022-11-23T22:43:40.336Z,17.90
2022-11-23T22:45:42.186Z,17.90
2022-11-23T22:47:43.919Z,17.90
2022-11-23T22:49:45.660Z,17.90
2022-11-23T22:51:47.397Z,17.90
2022-11-23T22:53:58.748Z,17.90
2022-11-23T22:56:01.409Z,17.90
2022-11-23T22:58:03.194Z,17.90
2022-11-23T23:00:05.123Z,17.90
2022-11-23T23:02:06.983Z,17.90
2022-11-23T23:04:09.016Z,17.90
2022-11-23T23:06:20.739Z,17.90
2022-11-23T23:08:23.055Z,17.90
2022-11-23T23:10:24.811Z,17.90
2022-11-23T23:12:26.539Z,17.80
2022-11-23T23:14:28.272Z,17.90
2022-11-23T23:16:30.136Z,17.90
2022-11-23T23:18:32.312Z,17.80
2022-11-23T23:20:34.827Z,17.90
2022-11-23T23:22:36.697Z,17.80
2022-11-23T23:24:38.398Z,17.90
2022-11-23T23:26:40.244Z,17.80
2022-11-23T23:28:42.604Z,17.80
2022-11-23T23:30:44.432Z,17.80
2022-11-23T23:32:46.437Z,17.80
2022-11-23T23:34:48.198Z,17.80
2022-11-23T23:36:49.912Z,17.80
2022-11-23T23:38:51.958Z,17.80
2022-11-23T23:40:54.305Z,17.80
2022-11-23T23:42:57.635Z,17.80
2022-11-23T23:44:59.610Z,17.80
2022-11-23T23:47:01.517Z,17.80
2022-11-23T23:49:03.878Z,17.80
2022-11-23T23:51:09.427Z,17.80
2022-11-23T23:53:11.164Z,17.80
2022-11-23T23:55:12.997Z,17.80
2022-11-23T23:57:14.733Z,17.80
2022-11-23T23:59:16.538Z,17.80
